Time;durP1;ratioP1;P1;durP2;ratioP2;P2;SDS_P1;SDS_P2;PMS_P1;PMS_P2;Temp;Humidity;BMP_temperature;BMP_pressure;BME280_temperature;BME280_humidity;BME280_pressure;Samples;Min_cycle;Max_cycle;Signal;HPM_P1;HPM_P2
2022/10/16 00:00:42;;;;;;;;;;;8.20;99.90;;;;;;5095361;28;19999;-74
2022/10/16 00:03:09;;;;;;;;;;;8.20;99.90;;;;;;5095859;28;19908;-75
2022/10/16 00:05:39;;;;;;;;;;;8.20;99.90;;;;;;5095222;28;19987;-76
2022/10/16 00:08:05;;;;;;;;;;;8.20;99.90;;;;;;5095755;28;19951;-75
2022/10/16 00:10:30;;;;;;;;;;;8.10;99.90;;;;;;5094858;28;19951;-76
2022/10/16 00:12:56;;;;;;;;;;;8.20;99.90;;;;;;5095608;28;19908;-75
2022/10/16 00:15:21;;;;;;;;;;;8.10;99.90;;;;;;5094435;28;19912;-74
2022/10/16 00:17:47;;;;;;;;;;;8.10;99.90;;;;;;5095010;28;20592;-75
2022/10/16 00:20:12;;;;;;;;;;;8.10;99.90;;;;;;5095659;28;19909;-74
2022/10/16 00:22:38;;;;;;;;;;;8.20;99.90;;;;;;5094999;28;19961;-75
2022/10/16 00:25:04;;;;;;;;;;;8.10;99.90;;;;;;5095409;28;19912;-75
2022/10/16 00:27:29;;;;;;;;;;;8.20;99.90;;;;;;5095325;28;19912;-75
2022/10/16 00:29:55;;;;;;;;;;;8.20;99.90;;;;;;5095405;28;19915;-75
2022/10/16 00:32:20;;;;;;;;;;;8.20;99.90;;;;;;5095779;28;19912;-75
2022/10/16 00:34:46;;;;;;;;;;;8.30;99.90;;;;;;5094681;28;20007;-75
2022/10/16 00:37:12;;;;;;;;;;;8.30;99.90;;;;;;5095110;28;20365;-75
2022/10/16 00:39:38;;;;;;;;;;;8.30;99.90;;;;;;5094750;28;19951;-75
2022/10/16 00:42:03;;;;;;;;;;;8.30;99.90;;;;;;5095344;28;19947;-75
2022/10/16 00:44:49;;;;;;;;;;;8.30;99.90;;;;;;5094367;28;19928;-75
2022/10/16 00:47:19;;;;;;;;;;;8.20;99.90;;;;;;5095266;28;19909;-75
2022/10/16 00:49:45;;;;;;;;;;;8.30;99.90;;;;;;5094178;28;20375;-75
2022/10/16 00:52:11;;;;;;;;;;;8.30;99.90;;;;;;5095654;28;19958;-74
2022/10/16 00:54:37;;;;;;;;;;;8.20;99.90;;;;;;5093043;28;19956;-75
2022/10/16 00:57:04;;;;;;;;;;;8.20;99.90;;;;;;5094874;28;20357;-74
2022/10/16 00:59:32;;;;;;;;;;;8.30;99.90;;;;;;5094750;28;19912;-75
2022/10/16 01:01:58;;;;;;;;;;;8.20;99.90;;;;;;5094530;28;20383;-74
2022/10/16 01:04:25;;;;;;;;;;;8.30;99.90;;;;;;5092536;28;20011;-74
2022/10/16 01:06:56;;;;;;;;;;;8.20;99.90;;;;;;5092437;28;19965;-74
2022/10/16 01:09:27;;;;;;;;;;;8.30;99.90;;;;;;5094660;28;19908;-75
2022/10/16 01:11:59;;;;;;;;;;;8.30;99.90;;;;;;5093812;28;19940;-75
2022/10/16 01:14:43;;;;;;;;;;;8.20;99.90;;;;;;5094060;28;20003;-75
2022/10/16 01:17:12;;;;;;;;;;;8.30;99.90;;;;;;5094580;28;19919;-75
2022/10/16 01:20:01;;;;;;;;;;;8.20;99.90;;;;;;5094196;28;19962;-75
2022/10/16 01:22:33;;;;;;;;;;;8.20;99.90;;;;;;5094301;28;19908;-75
2022/10/16 01:25:01;;;;;;;;;;;8.20;99.90;;;;;;5094649;28;19908;-75
2022/10/16 01:27:28;;;;;;;;;;;8.10;99.90;;;;;;5094289;28;19908;-75
2022/10/16 01:29:56;;;;;;;;;;;8.20;99.90;;;;;;5092429;28;20345;-75
2022/10/16 01:32:40;;;;;;;;;;;8.20;99.90;;;;;;5094037;28;19916;-75
2022/10/16 01:35:09;;;;;;;;;;;8.10;99.90;;;;;;5094057;28;19915;-75
2022/10/16 01:37:46;;;;;;;;;;;8.10;99.90;;;;;;5092367;28;19965;-75
2022/10/16 01:40:14;;;;;;;;;;;8.10;99.90;;;;;;5094849;28;19915;-74
2022/10/16 01:42:42;;;;;;;;;;;8.10;99.90;;;;;;5094021;28;19955;-75
2022/10/16 01:45:11;;;;;;;;;;;8.10;99.90;;;;;;5094019;28;20012;-75
2022/10/16 01:47:37;;;;;;;;;;;8.10;99.90;;;;;;5093567;28;19908;-74
2022/10/16 01:50:04;;;;;;;;;;;8.10;99.90;;;;;;5094100;28;20000;-74
2022/10/16 01:52:31;;;;;;;;;;;8.20;99.90;;;;;;5094570;28;19954;-74
2022/10/16 01:54:58;;;;;;;;;;;8.20;99.90;;;;;;5094280;28;19948;-74
2022/10/16 01:57:24;;;;;;;;;;;8.20;99.90;;;;;;5094313;28;20093;-75
2022/10/16 01:59:52;;;;;;;;;;;8.10;99.90;;;;;;5095052;28;19931;-75
2022/10/16 02:02:19;;;;;;;;;;;8.10;99.90;;;;;;5094326;28;20061;-74
2022/10/16 02:04:46;;;;;;;;;;;8.10;99.90;;;;;;5093694;28;19908;-75
2022/10/16 02:07:12;;;;;;;;;;;8.00;99.90;;;;;;5094251;28;19912;-73
2022/10/16 02:09:38;;;;;;;;;;;8.00;99.90;;;;;;5093571;28;20251;-74
2022/10/16 02:12:08;;;;;;;;;;;8.10;99.90;;;;;;5094111;28;19912;-74
2022/10/16 02:14:34;;;;;;;;;;;8.00;99.90;;;;;;5093532;28;19918;-74
2022/10/16 02:16:59;;;;;;;;;;;8.00;99.90;;;;;;5093473;28;19916;-75
2022/10/16 02:19:25;;;;;;;;;;;8.00;99.90;;;;;;5094141;28;19930;-73
2022/10/16 02:21:53;;;;;;;;;;;8.00;99.90;;;;;;5093143;28;19909;-74
2022/10/16 02:24:24;;;;;;;;;;;8.00;99.90;;;;;;5093814;28;19909;-75
2022/10/16 02:26:57;;;;;;;;;;;7.90;99.90;;;;;;5093818;28;20357;-74
2022/10/16 02:29:25;;;;;;;;;;;7.90;99.90;;;;;;5093792;28;19915;-74
2022/10/16 02:31:53;;;;;;;;;;;7.90;99.90;;;;;;5093240;28;19915;-75
2022/10/16 02:34:21;;;;;;;;;;;7.90;99.90;;;;;;5092604;28;19915;-74
2022/10/16 02:36:47;;;;;;;;;;;7.90;99.90;;;;;;5091840;28;19916;-74
2022/10/16 02:39:13;;;;;;;;;;;7.90;99.90;;;;;;5093421;28;19915;-74
2022/10/16 02:41:39;;;;;;;;;;;7.90;99.90;;;;;;5091806;28;19987;-73
2022/10/16 02:44:04;;;;;;;;;;;7.90;99.90;;;;;;5093335;28;19998;-73
2022/10/16 02:46:30;;;;;;;;;;;7.90;99.90;;;;;;5093126;28;20046;-73
2022/10/16 02:48:55;;;;;;;;;;;7.80;99.90;;;;;;5092523;28;19969;-73
2022/10/16 02:51:21;;;;;;;;;;;7.80;99.90;;;;;;5093177;28;19908;-73
2022/10/16 02:53:47;;;;;;;;;;;7.90;99.90;;;;;;5092926;28;19925;-74
2022/10/16 02:56:12;;;;;;;;;;;7.80;99.90;;;;;;5093114;28;19916;-73
2022/10/16 02:58:38;;;;;;;;;;;7.80;99.90;;;;;;5092575;28;19908;-74
2022/10/16 03:01:03;;;;;;;;;;;7.80;99.90;;;;;;5093358;28;19912;-74
2022/10/16 03:03:29;;;;;;;;;;;7.80;99.90;;;;;;5093268;28;19961;-73
2022/10/16 03:05:54;;;;;;;;;;;7.80;99.90;;;;;;5092696;28;19914;-73
2022/10/16 03:08:23;;;;;;;;;;;7.80;99.90;;;;;;5093409;28;19908;-73
2022/10/16 03:10:49;;;;;;;;;;;7.80;99.90;;;;;;5092204;28;19908;-74
2022/10/16 03:13:15;;;;;;;;;;;7.90;99.90;;;;;;5093166;28;19908;-72
2022/10/16 03:15:40;;;;;;;;;;;7.90;99.90;;;;;;5092242;28;19942;-73
2022/10/16 03:18:06;;;;;;;;;;;7.80;99.90;;;;;;5092981;28;19915;-73
2022/10/16 03:20:31;;;;;;;;;;;7.80;99.90;;;;;;5093027;28;19912;-74
2022/10/16 03:22:57;;;;;;;;;;;7.80;99.90;;;;;;5092206;28;19908;-73
2022/10/16 03:25:22;;;;;;;;;;;7.80;99.90;;;;;;5091478;28;19908;-73
2022/10/16 03:27:48;;;;;;;;;;;7.80;99.90;;;;;;5090518;28;20357;-74
2022/10/16 03:30:14;;;;;;;;;;;7.80;99.90;;;;;;5096217;28;20017;-74
2022/10/16 03:32:39;;;;;;;;;;;7.80;99.90;;;;;;5096527;28;19908;-74
2022/10/16 03:35:05;;;;;;;;;;;7.80;99.90;;;;;;5096000;28;19908;-73
2022/10/16 03:37:30;;;;;;;;;;;7.80;99.90;;;;;;5096792;28;19916;-74
2022/10/16 03:39:56;;;;;;;;;;;7.80;99.90;;;;;;5096445;28;20330;-72
2022/10/16 03:42:22;;;;;;;;;;;7.80;99.90;;;;;;5096864;28;19908;-73
2022/10/16 03:44:47;;;;;;;;;;;7.70;99.90;;;;;;5096464;28;19920;-73
2022/10/16 03:47:13;;;;;;;;;;;7.70;99.90;;;;;;5096215;28;20457;-74
2022/10/16 03:49:38;;;;;;;;;;;7.70;99.90;;;;;;5096704;28;19915;-74
2022/10/16 03:52:04;;;;;;;;;;;7.70;99.90;;;;;;5096319;28;19912;-74
2022/10/16 03:54:29;;;;;;;;;;;7.70;99.90;;;;;;5096171;28;20007;-73
2022/10/16 03:56:55;;;;;;;;;;;7.80;99.90;;;;;;5096084;28;19923;-73
2022/10/16 03:59:20;;;;;;;;;;;7.70;99.90;;;;;;5096887;28;20308;-73
2022/10/16 04:01:46;;;;;;;;;;;7.70;99.90;;;;;;5095808;28;19915;-72
2022/10/16 04:04:12;;;;;;;;;;;7.80;99.90;;;;;;5096837;28;20007;-74
2022/10/16 04:06:37;;;;;;;;;;;7.90;99.90;;;;;;5096519;28;19908;-74
2022/10/16 04:09:03;;;;;;;;;;;7.80;99.90;;;;;;5095760;28;19915;-73
2022/10/16 04:11:28;;;;;;;;;;;7.90;99.90;;;;;;5096170;28;19943;-73
2022/10/16 04:13:54;;;;;;;;;;;7.80;99.90;;;;;;5094875;28;19961;-73
2022/10/16 04:16:20;;;;;;;;;;;7.80;99.90;;;;;;5096330;28;19923;-74
2022/10/16 04:18:45;;;;;;;;;;;7.80;99.90;;;;;;5095138;28;20266;-74
2022/10/16 04:21:11;;;;;;;;;;;7.80;99.90;;;;;;5095972;28;19939;-74
2022/10/16 04:23:36;;;;;;;;;;;7.90;99.90;;;;;;5095947;28;19912;-74
2022/10/16 04:26:02;;;;;;;;;;;7.80;99.90;;;;;;5095719;28;19908;-74
2022/10/16 04:28:28;;;;;;;;;;;7.90;99.90;;;;;;5096143;28;20375;-73
2022/10/16 04:30:53;;;;;;;;;;;7.90;99.90;;;;;;5095532;28;19912;-74
2022/10/16 04:33:19;;;;;;;;;;;7.90;99.90;;;;;;5095715;28;20319;-74
2022/10/16 04:35:45;;;;;;;;;;;7.90;99.90;;;;;;5094415;28;20449;-74
2022/10/16 04:38:10;;;;;;;;;;;7.90;99.90;;;;;;5095864;28;19907;-74
2022/10/16 04:40:36;;;;;;;;;;;7.80;99.90;;;;;;5095622;28;20268;-74
2022/10/16 04:43:02;;;;;;;;;;;7.80;99.90;;;;;;5095219;28;19995;-74
2022/10/16 04:45:28;;;;;;;;;;;7.80;99.90;;;;;;5095617;28;19920;-73
2022/10/16 04:47:56;;;;;;;;;;;7.80;99.90;;;;;;5094660;28;19984;-74
2022/10/16 04:50:23;;;;;;;;;;;7.80;99.90;;;;;;5128218;27;20155;-74
2022/10/16 04:52:48;;;;;;;;;;;7.70;99.90;;;;;;5094794;28;19912;-73
2022/10/16 04:55:14;;;;;;;;;;;7.70;99.90;;;;;;5094583;28;20294;-73
2022/10/16 04:57:40;;;;;;;;;;;7.80;99.90;;;;;;5095461;28;19916;-73
2022/10/16 05:00:05;;;;;;;;;;;7.70;99.90;;;;;;5094459;28;19908;-74
2022/10/16 05:02:31;;;;;;;;;;;7.70;99.90;;;;;;5095535;28;19908;-74
2022/10/16 05:04:56;;;;;;;;;;;7.70;99.90;;;;;;5094860;28;19934;-74
2022/10/16 05:07:22;;;;;;;;;;;7.70;99.90;;;;;;5095295;28;19932;-74
2022/10/16 05:09:48;;;;;;;;;;;7.70;99.90;;;;;;5094697;28;19908;-75
2022/10/16 05:12:13;;;;;;;;;;;7.70;99.90;;;;;;5095205;28;19919;-74
2022/10/16 05:14:39;;;;;;;;;;;7.70;99.90;;;;;;5093226;28;20404;-74
2022/10/16 05:17:04;;;;;;;;;;;7.60;99.90;;;;;;5094382;28;19962;-75
2022/10/16 05:19:30;;;;;;;;;;;7.70;99.90;;;;;;5094795;28;19908;-75
2022/10/16 05:21:55;;;;;;;;;;;7.70;99.90;;;;;;5093192;28;19915;-75
2022/10/16 05:24:21;;;;;;;;;;;7.70;99.90;;;;;;5095086;28;19912;-74
2022/10/16 05:26:47;;;;;;;;;;;7.70;99.90;;;;;;5094195;28;19915;-75
2022/10/16 05:29:12;;;;;;;;;;;7.60;99.90;;;;;;5093545;28;19915;-75
2022/10/16 05:31:38;;;;;;;;;;;7.70;99.90;;;;;;5095201;28;19918;-74
2022/10/16 05:34:03;;;;;;;;;;;7.70;99.90;;;;;;5094236;28;19916;-75
2022/10/16 05:36:29;;;;;;;;;;;7.70;99.90;;;;;;5093866;28;19971;-75
2022/10/16 05:38:54;;;;;;;;;;;7.70;99.90;;;;;;5093905;28;19915;-75
2022/10/16 05:41:21;;;;;;;;;;;7.80;99.90;;;;;;5094323;28;20280;-75
2022/10/16 05:43:47;;;;;;;;;;;7.80;99.90;;;;;;5094000;28;19908;-75
2022/10/16 05:46:13;;;;;;;;;;;7.80;99.90;;;;;;5094160;28;20014;-74
2022/10/16 05:48:39;;;;;;;;;;;7.80;99.90;;;;;;5094380;28;20432;-74
2022/10/16 05:51:09;;;;;;;;;;;7.80;99.90;;;;;;5092910;28;19916;-74
2022/10/16 05:53:35;;;;;;;;;;;7.70;99.90;;;;;;5092830;28;19919;-74
2022/10/16 05:56:01;;;;;;;;;;;7.70;99.90;;;;;;5093359;28;19920;-74
2022/10/16 05:58:31;;;;;;;;;;;7.70;99.90;;;;;;5094333;28;19908;-74
2022/10/16 06:00:58;;;;;;;;;;;7.70;99.90;;;;;;5093739;28;20270;-74
2022/10/16 06:03:23;;;;;;;;;;;7.80;99.90;;;;;;5094192;28;20044;-74
2022/10/16 06:05:49;;;;;;;;;;;7.80;99.90;;;;;;5093523;28;20395;-75
2022/10/16 06:08:15;;;;;;;;;;;7.80;99.90;;;;;;5094118;28;20292;-74
2022/10/16 06:10:41;;;;;;;;;;;7.80;99.90;;;;;;5092824;28;19908;-74
2022/10/16 06:13:06;;;;;;;;;;;7.80;99.90;;;;;;5093317;28;19969;-74
2022/10/16 06:15:32;;;;;;;;;;;7.80;99.90;;;;;;5093264;28;19908;-74
2022/10/16 06:17:57;;;;;;;;;;;7.80;99.90;;;;;;5093283;28;20391;-74
2022/10/16 06:20:23;;;;;;;;;;;7.70;99.90;;;;;;5093483;28;20327;-74
2022/10/16 06:22:48;;;;;;;;;;;7.70;99.90;;;;;;5093709;28;19919;-74
2022/10/16 06:25:14;;;;;;;;;;;7.70;99.90;;;;;;5093258;28;19912;-74
2022/10/16 06:27:40;;;;;;;;;;;7.70;99.90;;;;;;5093925;28;20349;-73
2022/10/16 06:30:06;;;;;;;;;;;7.70;99.90;;;;;;5093106;28;20361;-73
2022/10/16 06:32:32;;;;;;;;;;;7.60;99.90;;;;;;5093674;28;19958;-73
2022/10/16 06:34:57;;;;;;;;;;;7.60;99.90;;;;;;5092489;28;19999;-73
2022/10/16 06:37:23;;;;;;;;;;;7.60;99.90;;;;;;5093218;28;20003;-73
2022/10/16 06:39:48;;;;;;;;;;;7.60;99.90;;;;;;5093285;28;19915;-74
2022/10/16 06:42:15;;;;;;;;;;;7.60;99.90;;;;;;5092983;28;19972;-74
2022/10/16 06:44:40;;;;;;;;;;;7.60;99.90;;;;;;5093127;28;19971;-74
2022/10/16 06:47:06;;;;;;;;;;;7.50;99.90;;;;;;5092843;28;19947;-74
2022/10/16 06:49:32;;;;;;;;;;;7.50;99.90;;;;;;5092931;28;19908;-74
2022/10/16 06:51:57;;;;;;;;;;;7.40;99.90;;;;;;5092513;28;20406;-75
2022/10/16 06:54:23;;;;;;;;;;;7.40;99.90;;;;;;5093400;28;19953;-74
2022/10/16 06:56:48;;;;;;;;;;;7.40;99.90;;;;;;5092420;28;20050;-74
2022/10/16 06:59:14;;;;;;;;;;;7.40;99.90;;;;;;5092512;28;20353;-74
2022/10/16 07:01:39;;;;;;;;;;;7.40;99.90;;;;;;5091924;28;19908;-74
2022/10/16 07:04:05;;;;;;;;;;;7.40;99.90;;;;;;5091791;28;19912;-74
2022/10/16 07:06:32;;;;;;;;;;;7.40;99.90;;;;;;5093190;28;20373;-74
2022/10/16 07:08:58;;;;;;;;;;;7.40;99.90;;;;;;5092486;28;19908;-75
2022/10/16 07:11:24;;;;;;;;;;;7.40;99.90;;;;;;5092758;28;19957;-76
2022/10/16 07:13:50;;;;;;;;;;;7.40;99.90;;;;;;5091790;28;19915;-74
2022/10/16 07:16:19;;;;;;;;;;;7.40;99.90;;;;;;5091915;28;19922;-74
2022/10/16 07:18:46;;;;;;;;;;;7.40;99.90;;;;;;5093198;28;19908;-74
2022/10/16 07:21:13;;;;;;;;;;;7.40;99.90;;;;;;5091734;28;19916;-74
2022/10/16 07:23:39;;;;;;;;;;;7.40;99.90;;;;;;5092718;28;20281;-74
2022/10/16 07:26:05;;;;;;;;;;;7.50;99.90;;;;;;5092220;28;19912;-74
2022/10/16 07:28:31;;;;;;;;;;;7.50;99.90;;;;;;5092892;28;19914;-74
2022/10/16 07:31:23;;;;;;;;;;;7.60;99.90;;;;;;5092341;28;19915;-75
2022/10/16 07:33:49;;;;;;;;;;;7.70;99.90;;;;;;5090354;28;19908;-75
2022/10/16 07:36:16;;;;;;;;;;;7.70;99.90;;;;;;5090324;28;19942;-74
2022/10/16 07:38:42;;;;;;;;;;;7.80;99.90;;;;;;5092521;28;19908;-76
2022/10/16 07:41:09;;;;;;;;;;;7.90;99.90;;;;;;5092146;28;19912;-75
2022/10/16 07:43:34;;;;;;;;;;;7.90;99.90;;;;;;5091961;28;19966;-75
2022/10/16 07:46:00;;;;;;;;;;;8.00;99.90;;;;;;5091632;28;19924;-75
2022/10/16 07:48:30;;;;;;;;;;;8.10;99.90;;;;;;5092101;28;19908;-75
2022/10/16 07:51:04;;;;;;;;;;;8.10;99.90;;;;;;5092342;28;19931;-77
2022/10/16 07:53:30;;;;;;;;;;;8.20;99.90;;;;;;5092163;28;19913;-74
2022/10/16 07:55:59;;;;;;;;;;;8.20;99.90;;;;;;5091602;28;19957;-74
2022/10/16 07:58:25;;;;;;;;;;;8.30;99.90;;;;;;5091013;28;20336;-73
2022/10/16 08:00:51;;;;;;;;;;;8.30;99.90;;;;;;5092380;28;19908;-74
2022/10/16 08:03:16;;;;;;;;;;;8.30;99.90;;;;;;5092087;28;19935;-74
2022/10/16 08:05:42;;;;;;;;;;;8.30;99.90;;;;;;5092637;28;19915;-72
2022/10/16 08:08:11;;;;;;;;;;;8.40;99.90;;;;;;5091730;28;19908;-73
2022/10/16 08:10:57;;;;;;;;;;;8.40;99.90;;;;;;5092346;28;20269;-73
2022/10/16 08:13:23;;;;;;;;;;;8.40;99.90;;;;;;5091753;28;19915;-74
2022/10/16 08:15:48;;;;;;;;;;;8.40;99.90;;;;;;5094831;28;20276;-72
2022/10/16 08:18:14;;;;;;;;;;;8.50;99.90;;;;;;5094763;28;19981;-73
2022/10/16 08:20:40;;;;;;;;;;;8.50;99.90;;;;;;5095583;28;19922;-73
2022/10/16 08:23:06;;;;;;;;;;;8.50;99.90;;;;;;5095476;28;19908;-73
2022/10/16 08:25:34;;;;;;;;;;;8.60;99.90;;;;;;5096366;28;19908;-72
2022/10/16 08:27:59;;;;;;;;;;;8.60;99.90;;;;;;5095462;28;19955;-74
2022/10/16 08:30:25;;;;;;;;;;;8.70;99.90;;;;;;5096105;28;19953;-73
2022/10/16 08:32:51;;;;;;;;;;;8.70;99.90;;;;;;5095679;28;19908;-74
2022/10/16 08:35:16;;;;;;;;;;;8.70;99.90;;;;;;5095562;28;20555;-73
2022/10/16 08:37:42;;;;;;;;;;;8.70;99.90;;;;;;5095031;28;20019;-73
2022/10/16 08:40:23;;;;;;;;;;;8.80;99.90;;;;;;5094905;28;19908;-74
2022/10/16 08:42:52;;;;;;;;;;;8.80;99.90;;;;;;5095890;28;20369;-73
2022/10/16 08:45:33;;;;;;;;;;;8.90;99.90;;;;;;5094137;28;20523;-72
2022/10/16 08:48:02;;;;;;;;;;;9.00;99.90;;;;;;5094644;28;19908;-74
2022/10/16 08:50:29;;;;;;;;;;;9.10;99.90;;;;;;5095052;28;19908;-73
2022/10/16 08:52:55;;;;;;;;;;;9.20;99.90;;;;;;5094543;28;20280;-74
2022/10/16 08:55:28;;;;;;;;;;;9.20;99.90;;;;;;5092806;28;19912;-73
2022/10/16 08:57:53;;;;;;;;;;;9.30;99.90;;;;;;5093923;28;19916;-74
2022/10/16 09:00:19;;;;;;;;;;;9.40;99.90;;;;;;5094359;28;20349;-74
2022/10/16 09:03:11;;;;;;;;;;;9.50;99.90;;;;;;5094971;28;19909;-74
2022/10/16 09:05:42;;;;;;;;;;;9.50;99.90;;;;;;5092605;28;19908;-74
2022/10/16 09:08:20;;;;;;;;;;;9.60;99.90;;;;;;5094106;28;20003;-74
2022/10/16 09:10:52;;;;;;;;;;;9.70;99.90;;;;;;5094560;28;19908;-73
2022/10/16 09:13:21;;;;;;;;;;;9.80;99.90;;;;;;5093596;28;19994;-74
2022/10/16 09:15:59;;;;;;;;;;;9.80;99.90;;;;;;5093960;28;19915;-73
2022/10/16 09:18:57;;;;;;;;;;;9.80;99.90;;;;;;5094662;28;19916;-74
2022/10/16 09:21:30;;;;;;;;;;;9.80;99.90;;;;;;5070547;28;19912;-74
2022/10/16 09:24:28;;;;;;;;;;;9.90;99.90;;;;;;5094002;28;19955;-74
2022/10/16 09:26:54;;;;;;;;;;;10.00;99.90;;;;;;5069862;28;19958;-74
2022/10/16 09:29:24;;;;;;;;;;;10.00;99.90;;;;;;5093817;28;20702;-74
2022/10/16 09:31:51;;;;;;;;;;;10.00;99.90;;;;;;5094008;28;19916;-74
2022/10/16 09:34:30;;;;;;;;;;;10.00;99.90;;;;;;5093634;28;19908;-74
2022/10/16 09:36:57;;;;;;;;;;;10.10;99.90;;;;;;5093649;28;20293;-76
2022/10/16 09:39:22;;;;;;;;;;;10.10;99.90;;;;;;5093461;28;19919;-73
2022/10/16 09:41:49;;;;;;;;;;;10.20;99.90;;;;;;5093736;28;19908;-74
2022/10/16 09:44:21;;;;;;;;;;;10.20;99.90;;;;;;5093777;28;20274;-72
2022/10/16 09:46:46;;;;;;;;;;;10.30;99.90;;;;;;5092758;28;19955;-73
2022/10/16 09:49:18;;;;;;;;;;;10.30;99.90;;;;;;5093122;28;20396;-74
2022/10/16 09:51:44;;;;;;;;;;;10.40;99.90;;;;;;5093771;28;20438;-74
2022/10/16 09:54:09;;;;;;;;;;;10.50;99.90;;;;;;5092834;28;19908;-74
2022/10/16 09:56:36;;;;;;;;;;;10.50;99.90;;;;;;5093529;28;19916;-73
2022/10/16 09:59:31;;;;;;;;;;;10.60;99.90;;;;;;5092954;28;19953;-74
2022/10/16 10:02:03;;;;;;;;;;;10.70;99.90;;;;;;5083800;28;20269;-73
2022/10/16 10:04:37;;;;;;;;;;;10.80;99.90;;;;;;5093366;28;19908;-73
2022/10/16 10:07:03;;;;;;;;;;;10.70;99.90;;;;;;5092694;28;19908;-74
2022/10/16 10:09:29;;;;;;;;;;;10.80;99.90;;;;;;5092886;28;19908;-73
2022/10/16 10:11:56;;;;;;;;;;;10.90;99.90;;;;;;5093376;28;19924;-73
2022/10/16 10:14:29;;;;;;;;;;;10.90;99.90;;;;;;5092703;28;19912;-73
2022/10/16 10:17:06;;;;;;;;;;;11.00;99.90;;;;;;5093226;28;19920;-74
2022/10/16 10:19:58;;;;;;;;;;;11.10;99.90;;;;;;5093318;28;19915;-73
2022/10/16 10:22:25;;;;;;;;;;;11.20;99.90;;;;;;5087627;28;20343;-75
2022/10/16 10:25:13;;;;;;;;;;;11.10;99.90;;;;;;5093250;28;19908;-73
2022/10/16 10:27:57;;;;;;;;;;;11.10;99.90;;;;;;5093278;28;20302;-74
2022/10/16 10:30:35;;;;;;;;;;;11.20;99.90;;;;;;5092446;28;20015;-74
2022/10/16 10:33:24;;;;;;;;;;;11.20;99.90;;;;;;5092602;28;19954;-74
2022/10/16 10:35:59;;;;;;;;;;;11.30;99.90;;;;;;5092978;28;20003;-74
2022/10/16 10:38:24;;;;;;;;;;;11.30;99.90;;;;;;5092256;28;20014;-74
2022/10/16 10:40:52;;;;;;;;;;;11.30;99.90;;;;;;5093234;28;20382;-73
2022/10/16 10:43:24;;;;;;;;;;;11.30;99.90;;;;;;5091373;28;19908;-73
2022/10/16 10:45:52;;;;;;;;;;;11.30;99.90;;;;;;5092545;28;19928;-73
2022/10/16 10:48:27;;;;;;;;;;;11.40;99.90;;;;;;5091971;28;19916;-74
2022/10/16 10:50:58;;;;;;;;;;;11.50;99.90;;;;;;5092971;28;20060;-74
2022/10/16 10:53:33;;;;;;;;;;;11.50;99.90;;;;;;5091857;28;20372;-74
2022/10/16 10:56:17;;;;;;;;;;;11.40;99.90;;;;;;5092149;28;20296;-74
2022/10/16 10:58:51;;;;;;;;;;;11.40;99.90;;;;;;5092746;28;19948;-74
2022/10/16 11:01:22;;;;;;;;;;;11.40;99.90;;;;;;5090733;28;19908;-73
2022/10/16 11:04:23;;;;;;;;;;;11.40;99.90;;;;;;5092811;28;19915;-73
2022/10/16 11:06:55;;;;;;;;;;;11.50;99.90;;;;;;5049772;28;19909;-73
2022/10/16 11:09:24;;;;;;;;;;;11.50;99.90;;;;;;5084845;28;19908;-72
2022/10/16 11:11:52;;;;;;;;;;;11.50;99.90;;;;;;5092399;28;19915;-73
2022/10/16 11:14:23;;;;;;;;;;;11.60;99.90;;;;;;5091872;28;19908;-74
2022/10/16 11:17:12;;;;;;;;;;;11.60;99.90;;;;;;5092452;28;19916;-74
2022/10/16 11:19:40;;;;;;;;;;;11.60;99.90;;;;;;5086133;28;19919;-74
2022/10/16 11:22:13;;;;;;;;;;;11.60;99.90;;;;;;5091746;28;20315;-75
2022/10/16 11:24:57;;;;;;;;;;;11.60;99.90;;;;;;5091777;28;20010;-74
2022/10/16 11:27:30;;;;;;;;;;;11.60;99.90;;;;;;5091065;28;19915;-74
2022/10/16 11:29:58;;;;;;;;;;;11.60;99.90;;;;;;5092437;28;20268;-74
2022/10/16 11:32:28;;;;;;;;;;;11.60;99.90;;;;;;5091459;28;19919;-73
2022/10/16 11:34:57;;;;;;;;;;;11.60;99.90;;;;;;5092389;28;19912;-73
2022/10/16 11:37:33;;;;;;;;;;;11.60;99.90;;;;;;5091345;28;19916;-73
2022/10/16 11:40:05;;;;;;;;;;;11.60;99.90;;;;;;5092584;28;19915;-73
2022/10/16 11:42:34;;;;;;;;;;;11.60;99.90;;;;;;5091637;28;19908;-74
2022/10/16 11:45:24;;;;;;;;;;;11.60;99.90;;;;;;5092430;28;20297;-73
2022/10/16 11:48:04;;;;;;;;;;;11.60;99.90;;;;;;5092630;28;19914;-73
2022/10/16 11:50:43;;;;;;;;;;;11.60;99.90;;;;;;5095331;28;19915;-73
2022/10/16 11:53:20;;;;;;;;;;;11.60;99.90;;;;;;5095868;28;20348;-74
2022/10/16 11:55:46;;;;;;;;;;;11.70;99.90;;;;;;5096749;28;19908;-74
2022/10/16 11:58:14;;;;;;;;;;;11.60;99.90;;;;;;5095949;28;19923;-73
2022/10/16 12:00:44;;;;;;;;;;;11.60;99.90;;;;;;5096611;28;19908;-73
2022/10/16 12:03:10;;;;;;;;;;;11.70;99.90;;;;;;5095970;28;19908;-73
2022/10/16 12:05:36;;;;;;;;;;;11.70;99.90;;;;;;5096008;28;19915;-72
2022/10/16 12:08:06;;;;;;;;;;;11.70;99.90;;;;;;5096115;28;20018;-73
2022/10/16 12:10:36;;;;;;;;;;;11.60;99.90;;;;;;5095032;28;20284;-73
2022/10/16 12:13:02;;;;;;;;;;;11.60;99.90;;;;;;5095996;28;19938;-73
2022/10/16 12:15:29;;;;;;;;;;;11.60;99.90;;;;;;5096184;28;19908;-73
2022/10/16 12:17:55;;;;;;;;;;;11.60;99.90;;;;;;5095893;28;19961;-73
2022/10/16 12:20:32;;;;;;;;;;;11.70;99.90;;;;;;5095705;28;19912;-74
2022/10/16 12:23:02;;;;;;;;;;;11.70;99.90;;;;;;5096081;28;19915;-73
2022/10/16 12:25:28;;;;;;;;;;;11.60;99.90;;;;;;5095859;28;19908;-73
2022/10/16 12:28:04;;;;;;;;;;;11.60;99.90;;;;;;5095247;28;19952;-73
2022/10/16 12:30:31;;;;;;;;;;;11.60;99.90;;;;;;5095614;28;19908;-73
2022/10/16 12:32:59;;;;;;;;;;;11.60;99.90;;;;;;5094372;28;19977;-73
2022/10/16 12:35:29;;;;;;;;;;;11.60;99.90;;;;;;5094883;28;20378;-73
2022/10/16 12:38:05;;;;;;;;;;;11.60;99.90;;;;;;5095857;28;19933;-74
2022/10/16 12:40:32;;;;;;;;;;;11.60;99.90;;;;;;5095839;28;20388;-74
2022/10/16 12:42:58;;;;;;;;;;;11.70;99.90;;;;;;5094223;28;19947;-73
2022/10/16 12:45:26;;;;;;;;;;;11.70;99.90;;;;;;5093613;28;19970;-74
2022/10/16 12:47:53;;;;;;;;;;;11.70;99.90;;;;;;5095612;28;20272;-71
2022/10/16 12:50:36;;;;;;;;;;;11.70;99.90;;;;;;5094465;28;20361;-74
2022/10/16 12:53:02;;;;;;;;;;;11.60;99.90;;;;;;5095177;28;19915;-75
2022/10/16 12:55:32;;;;;;;;;;;11.60;99.90;;;;;;5095137;28;19908;-74
2022/10/16 12:58:16;;;;;;;;;;;11.60;99.90;;;;;;5095383;28;19978;-74
2022/10/16 13:00:50;;;;;;;;;;;11.60;99.90;;;;;;5093667;28;20354;-72
2022/10/16 13:03:34;;;;;;;;;;;11.60;99.90;;;;;;5094304;28;20317;-73
2022/10/16 13:06:18;;;;;;;;;;;11.60;99.90;;;;;;5094507;28;20285;-74
2022/10/16 13:08:53;;;;;;;;;;;11.50;99.90;;;;;;5094439;28;19919;-73
2022/10/16 13:11:31;;;;;;;;;;;11.50;99.90;;;;;;5091518;28;19952;-74
2022/10/16 13:13:56;;;;;;;;;;;11.50;99.90;;;;;;5094427;28;20280;-74
2022/10/16 13:16:22;;;;;;;;;;;11.50;99.90;;;;;;5094266;28;20031;-74
2022/10/16 13:18:47;;;;;;;;;;;11.50;99.90;;;;;;5094899;28;19951;-74
2022/10/16 13:21:20;;;;;;;;;;;11.40;99.90;;;;;;5094479;28;20368;-75
2022/10/16 13:23:58;;;;;;;;;;;11.40;99.90;;;;;;5093930;28;20258;-74
2022/10/16 13:26:30;;;;;;;;;;;11.30;99.90;;;;;;5094176;28;19922;-74
2022/10/16 13:28:58;;;;;;;;;;;11.30;99.90;;;;;;5093860;28;19909;-73
2022/10/16 13:31:24;;;;;;;;;;;11.20;99.90;;;;;;5093933;28;19913;-74
2022/10/16 13:33:54;;;;;;;;;;;11.20;99.90;;;;;;5094606;28;20361;-73
2022/10/16 13:36:21;;;;;;;;;;;11.20;99.90;;;;;;5093994;28;20018;-73
2022/10/16 13:38:47;;;;;;;;;;;11.20;99.90;;;;;;5094692;28;19955;-73
2022/10/16 13:41:18;;;;;;;;;;;11.20;99.90;;;;;;5094001;28;19947;-73
2022/10/16 13:43:49;;;;;;;;;;;11.20;99.90;;;;;;5094400;28;19915;-74
2022/10/16 13:46:16;;;;;;;;;;;11.20;99.90;;;;;;5093445;28;20373;-74
2022/10/16 13:48:42;;;;;;;;;;;11.20;99.90;;;;;;5094710;28;19915;-74
2022/10/16 13:51:15;;;;;;;;;;;11.10;99.90;;;;;;5093785;28;19916;-75
2022/10/16 13:53:41;;;;;;;;;;;11.10;99.90;;;;;;5094341;28;20360;-74
2022/10/16 13:56:10;;;;;;;;;;;11.00;99.90;;;;;;5093371;28;19913;-75
2022/10/16 13:58:36;;;;;;;;;;;11.00;99.90;;;;;;5093891;28;19930;-73
2022/10/16 14:01:03;;;;;;;;;;;11.00;99.90;;;;;;5093850;28;19912;-73
2022/10/16 14:03:29;;;;;;;;;;;10.90;99.90;;;;;;5092711;28;19908;-73
2022/10/16 14:05:57;;;;;;;;;;;10.90;99.90;;;;;;5093137;28;20353;-73
2022/10/16 14:08:24;;;;;;;;;;;10.90;99.90;;;;;;5093760;28;19908;-74
2022/10/16 14:10:50;;;;;;;;;;;10.90;99.90;;;;;;5093711;28;20367;-74
2022/10/16 14:13:22;;;;;;;;;;;10.90;99.90;;;;;;5092081;28;19962;-73
2022/10/16 14:15:51;;;;;;;;;;;10.90;99.90;;;;;;5092524;28;19948;-74
2022/10/16 14:18:18;;;;;;;;;;;10.90;99.90;;;;;;5092531;28;20319;-74
2022/10/16 14:20:44;;;;;;;;;;;10.90;99.90;;;;;;5093102;28;19912;-74
2022/10/16 14:23:23;;;;;;;;;;;10.90;99.90;;;;;;5092472;28;19930;-73
2022/10/16 14:25:50;;;;;;;;;;;10.90;99.90;;;;;;5093157;28;19954;-74
2022/10/16 14:28:17;;;;;;;;;;;10.90;99.90;;;;;;5091376;28;20380;-74
2022/10/16 14:30:51;;;;;;;;;;;10.90;99.90;;;;;;5092932;28;20024;-73
2022/10/16 14:33:29;;;;;;;;;;;10.90;99.90;;;;;;5092458;28;20343;-73
2022/10/16 14:36:10;;;;;;;;;;;10.90;99.90;;;;;;5092260;28;19919;-74